createdAt,value
2019-02-10T00:02:29.843Z,13.87
2019-02-10T00:05:00.645Z,14.33
2019-02-10T00:07:35.396Z,14.53
2019-02-10T00:10:06.811Z,14.83
2019-02-10T00:12:53.259Z,12.63
2019-02-10T00:15:35.229Z,13.27
2019-02-10T00:18:17.125Z,13.87
2019-02-10T00:20:43.966Z,13.17
2019-02-10T00:23:12.935Z,13.17
2019-02-10T00:25:55.019Z,12.97
2019-02-10T00:28:20.729Z,13.70
2019-02-10T00:31:00.861Z,13.37
2019-02-10T00:33:37.732Z,13.27
2019-02-10T00:36:32.630Z,13.20
2019-02-10T00:38:57.962Z,13.00
2019-02-10T00:41:29.122Z,12.43
2019-02-10T00:44:00.182Z,12.93
2019-02-10T00:46:29.315Z,13.57
2019-02-10T00:52:26.948Z,12.67
2019-02-10T00:54:55.984Z,12.47
2019-02-10T00:57:24.994Z,13.50
2019-02-10T00:59:54.037Z,13.17
2019-02-10T01:02:45.506Z,13.73
2019-02-10T01:04:53.890Z,14.13
2019-02-10T01:07:22.875Z,12.97
2019-02-10T01:09:57.076Z,13.63
2019-02-10T01:12:26.054Z,12.80
2019-02-10T01:14:55.146Z,13.40
2019-02-10T01:17:24.158Z,13.27
2019-02-10T01:19:54.855Z,13.93
2019-02-10T01:22:29.232Z,13.17
2019-02-10T01:25:05.250Z,13.40
2019-02-10T01:27:38.508Z,14.00
2019-02-10T01:30:10.962Z,14.27
2019-02-10T01:32:44.297Z,13.57
2019-02-10T01:35:18.406Z,14.83
2019-02-10T01:37:51.866Z,14.37
2019-02-10T01:40:26.526Z,14.40
2019-02-10T01:43:10.501Z,13.70
2019-02-10T01:45:31.660Z,14.27
2019-02-10T01:48:08.151Z,13.67
2019-02-10T01:50:38.355Z,14.97
2019-02-10T01:53:07.225Z,14.97
2019-02-10T01:55:39.707Z,14.13
2019-02-10T01:58:12.313Z,14.13
2019-02-10T02:01:00.367Z,15.17
2019-02-10T02:03:31.735Z,15.33
2019-02-10T02:05:51.788Z,14.90
2019-02-10T02:08:44.011Z,14.67
2019-02-10T02:11:19.231Z,14.90
2019-02-10T02:13:59.669Z,15.10
2019-02-10T02:16:27.172Z,15.17
2019-02-10T02:18:56.471Z,14.83
2019-02-10T02:21:32.714Z,14.00
2019-02-10T02:24:01.680Z,14.97
2019-02-10T02:26:30.884Z,15.67
2019-02-10T02:29:00.113Z,15.37
2019-02-10T02:31:35.741Z,14.67
2019-02-10T02:34:10.648Z,15.07
2019-02-10T02:36:42.967Z,14.70
2019-02-10T02:39:13.008Z,14.90
2019-02-10T02:41:42.567Z,15.00
2019-02-10T02:44:11.743Z,14.50
2019-02-10T02:46:40.655Z,15.50
2019-02-10T02:49:09.664Z,15.77
2019-02-10T02:51:38.636Z,14.43
2019-02-10T02:54:11.720Z,14.90
2019-02-10T02:56:47.050Z,14.93
2019-02-10T02:59:25.521Z,15.03
2019-02-10T03:02:02.451Z,13.47
2019-02-10T03:04:33.595Z,14.73
2019-02-10T03:07:47.993Z,14.50
2019-02-10T03:10:08.516Z,14.20
2019-02-10T03:12:41.954Z,14.23
2019-02-10T03:15:36.538Z,14.07
2019-02-10T03:18:07.157Z,14.43
2019-02-10T03:21:03.092Z,13.70
2019-02-10T03:23:42.904Z,13.33
2019-02-10T03:26:09.765Z,13.40
2019-02-10T03:29:02.145Z,13.40
2019-02-10T03:31:33.510Z,12.90
2019-02-10T03:34:40.056Z,13.87
2019-02-10T03:37:37.857Z,13.50
2019-02-10T03:40:09.518Z,13.30
2019-02-10T03:42:44.538Z,12.93
2019-02-10T03:48:16.438Z,12.40
2019-02-10T03:50:53.096Z,12.90
2019-02-10T03:53:24.177Z,12.87
2019-02-10T03:55:59.812Z,11.93
2019-02-10T03:58:44.675Z,11.63
2019-02-10T04:01:36.748Z,11.67
2019-02-10T04:04:33.387Z,11.23
2019-02-10T04:07:13.359Z,10.90
2019-02-10T04:10:06.232Z,10.53
2019-02-10T04:12:39.787Z,11.47
2019-02-10T04:15:09.959Z,10.63
2019-02-10T04:17:46.503Z,9.73
2019-02-10T04:20:25.673Z,10.10
2019-02-10T04:23:03.712Z,9.50
2019-02-10T04:25:56.170Z,10.40
2019-02-10T04:28:48.189Z,10.37
2019-02-10T04:31:19.253Z,9.87
2019-02-10T04:33:58.177Z,9.77
2019-02-10T04:36:46.195Z,10.20
2019-02-10T04:39:23.040Z,10.00
2019-02-10T04:41:54.543Z,10.20
2019-02-10T04:47:35.885Z,9.53
2019-02-10T04:50:20.496Z,9.27
2019-02-10T04:53:04.779Z,9.57
2019-02-10T04:55:46.783Z,9.20
2019-02-10T04:58:32.107Z,8.30
2019-02-10T05:01:10.104Z,8.63
2019-02-10T05:04:19.077Z,8.63
2019-02-10T05:06:51.033Z,8.60
2019-02-10T05:10:03.375Z,8.50
2019-02-10T05:12:05.556Z,7.83
2019-02-10T05:14:47.532Z,8.57
2019-02-10T05:17:24.294Z,7.40
2019-02-10T05:19:53.486Z,8.17
2019-02-10T05:22:39.348Z,7.73
2019-02-10T05:25:12.037Z,7.33
2019-02-10T05:27:44.896Z,7.43
2019-02-10T05:30:15.294Z,7.13
2019-02-10T05:32:47.663Z,7.30
2019-02-10T05:35:22.122Z,7.13
2019-02-10T05:38:07.990Z,7.03
2019-02-10T05:40:41.380Z,6.93
2019-02-10T05:43:14.701Z,6.50
2019-02-10T05:45:48.886Z,6.83
2019-02-10T05:48:22.343Z,6.90
2019-02-10T05:51:10.580Z,6.27
2019-02-10T05:53:46.263Z,6.30
2019-02-10T05:56:50.301Z,6.43
2019-02-10T05:59:29.018Z,6.57
2019-02-10T06:02:03.369Z,6.23
2019-02-10T06:04:37.130Z,5.93
2019-02-10T06:07:09.790Z,6.00
2019-02-10T06:09:38.824Z,6.00
2019-02-10T06:12:11.826Z,6.00
2019-02-10T06:14:40.889Z,5.53
2019-02-10T06:17:13.053Z,5.53
2019-02-10T06:19:42.332Z,5.43
2019-02-10T06:22:13.939Z,5.80
2019-02-10T06:24:46.612Z,5.50
2019-02-10T06:30:07.479Z,6.23
2019-02-10T06:32:39.920Z,5.27
2019-02-10T06:35:14.155Z,5.40
2019-02-10T06:37:43.097Z,5.70
2019-02-10T06:40:15.384Z,5.07
2019-02-10T06:42:44.476Z,5.17
2019-02-10T06:45:13.904Z,5.23
2019-02-10T06:47:46.157Z,5.20
2019-02-10T06:50:15.808Z,5.07
2019-02-10T06:52:46.006Z,4.20
2019-02-10T06:55:15.433Z,4.47
2019-02-10T06:57:52.547Z,4.17
2019-02-10T07:00:42.223Z,4.83
2019-02-10T07:04:00.442Z,4.57
2019-02-10T07:06:31.598Z,4.60
2019-02-10T07:09:00.723Z,4.63
2019-02-10T07:11:31.278Z,4.47
2019-02-10T07:14:16.505Z,4.30
2019-02-10T07:16:55.529Z,4.73
2019-02-10T07:20:00.267Z,5.60
2019-02-10T07:23:17.587Z,7.90
2019-02-10T07:25:55.617Z,7.23
2019-02-10T07:29:12.531Z,6.77
2019-02-10T07:31:56.885Z,9.27
2019-02-10T07:34:55.535Z,7.20
2019-02-10T07:38:13.769Z,7.87
2019-02-10T07:41:23.013Z,7.40
2019-02-10T07:44:44.315Z,6.83
2019-02-10T07:48:06.540Z,6.83
2019-02-10T07:51:22.438Z,6.20
2019-02-10T07:54:32.823Z,6.50
2019-02-10T07:57:52.170Z,7.10
2019-02-10T08:00:53.129Z,7.20
2019-02-10T08:03:41.451Z,6.63
2019-02-10T08:06:43.037Z,6.70
2019-02-10T08:10:22.958Z,6.77
2019-02-10T08:13:06.380Z,6.67
2019-02-10T08:16:06.208Z,6.87
2019-02-10T08:19:02.131Z,6.27
2019-02-10T08:21:47.569Z,6.07
2019-02-10T08:25:13.065Z,6.30
2019-02-10T08:31:30.531Z,5.80
2019-02-10T08:34:18.767Z,5.77
2019-02-10T08:37:43.702Z,5.80
2019-02-10T08:40:44.701Z,5.73
2019-02-10T08:43:55.319Z,5.90
2019-02-10T08:46:56.717Z,5.83
2019-02-10T08:50:16.652Z,6.03
2019-02-10T08:53:03.089Z,5.20
2019-02-10T08:55:32.484Z,5.20
2019-02-10T08:58:02.924Z,5.17
2019-02-10T09:00:32.194Z,6.50
2019-02-10T09:03:01.006Z,6.50
2019-02-10T09:05:30.839Z,8.10
2019-02-10T09:07:59.679Z,7.50
2019-02-10T09:10:48.343Z,8.87
2019-02-10T09:13:21.301Z,8.20
2019-02-10T09:15:47.860Z,8.20
2019-02-10T09:18:25.923Z,8.10
2019-02-10T09:21:02.095Z,8.80
2019-02-10T09:23:47.582Z,8.93
2019-02-10T09:26:43.614Z,9.03
2019-02-10T09:29:12.492Z,9.17
2019-02-10T09:31:41.361Z,9.57
2019-02-10T09:34:17.560Z,8.80
2019-02-10T09:37:15.913Z,9.87
2019-02-10T09:39:46.635Z,9.30
2019-02-10T09:42:26.408Z,8.97
2019-02-10T09:44:57.592Z,9.40
2019-02-10T09:47:28.235Z,9.93
2019-02-10T09:49:59.587Z,10.07
2019-02-10T09:52:32.437Z,10.33
2019-02-10T09:55:08.406Z,10.40
2019-02-10T09:57:37.391Z,10.50
2019-02-10T10:00:09.099Z,10.23
2019-02-10T10:02:38.145Z,10.60
2019-02-10T10:05:30.677Z,10.80
2019-02-10T10:07:59.311Z,11.50
2019-02-10T10:10:35.936Z,11.90
2019-02-10T10:13:08.710Z,11.37
2019-02-10T10:15:42.463Z,11.27
2019-02-10T10:18:11.530Z,11.90
2019-02-10T10:20:41.383Z,12.10
2019-02-10T10:23:11.390Z,12.50
2019-02-10T10:25:49.853Z,12.30
2019-02-10T10:28:20.022Z,12.33
2019-02-10T10:30:49.715Z,12.73
2019-02-10T10:33:18.564Z,15.00
2019-02-10T10:36:02.988Z,14.30
2019-02-10T10:38:31.851Z,13.13
2019-02-10T10:41:00.853Z,11.87
2019-02-10T10:46:30.827Z,9.60
2019-02-10T10:49:20.681Z,8.77
2019-02-10T10:51:49.633Z,6.93
2019-02-10T10:54:20.686Z,6.20
2019-02-10T10:56:58.650Z,8.27
2019-02-10T10:59:48.055Z,7.20
2019-02-10T11:02:18.753Z,6.40
2019-02-10T11:05:04.027Z,7.30
2019-02-10T11:07:46.174Z,6.90
2019-02-10T11:10:24.438Z,6.93
2019-02-10T11:12:55.261Z,6.87
2019-02-10T11:15:24.584Z,7.17
2019-02-10T11:17:53.692Z,7.07
2019-02-10T11:20:36.710Z,7.27
2019-02-10T11:23:11.858Z,6.10
2019-02-10T11:25:45.266Z,7.40
2019-02-10T11:28:14.727Z,5.53
2019-02-10T11:30:43.546Z,5.77
2019-02-10T11:33:13.328Z,5.80
2019-02-10T11:35:46.955Z,6.63
2019-02-10T11:38:17.210Z,6.53
2019-02-10T11:40:57.181Z,5.70
2019-02-10T11:43:27.263Z,6.03
2019-02-10T11:46:05.339Z,6.57
2019-02-10T11:48:36.481Z,5.60
2019-02-10T11:51:05.635Z,5.63
2019-02-10T11:53:38.829Z,5.70
2019-02-10T11:56:07.821Z,5.90
2019-02-10T12:01:15.127Z,6.00
2019-02-10T12:03:50.036Z,6.20
2019-02-10T12:06:39.640Z,6.77
2019-02-10T12:09:08.470Z,6.00
2019-02-10T12:14:31.565Z,4.92
2019-02-10T12:17:00.368Z,5.25
2019-02-10T12:19:36.010Z,4.37
2019-02-10T12:22:49.823Z,4.83
2019-02-10T12:24:49.660Z,4.28
2019-02-10T12:27:20.335Z,31.40
2019-02-10T12:29:53.621Z,8.70
2019-02-10T12:32:44.107Z,6.33
2019-02-10T12:35:13.479Z,5.20
2019-02-10T12:37:44.154Z,4.45
2019-02-10T12:40:16.724Z,3.70
2019-02-10T12:42:46.128Z,3.58
2019-02-10T12:45:20.203Z,3.50
2019-02-10T12:47:50.134Z,9.03
2019-02-10T12:50:19.233Z,14.83
2019-02-10T12:52:49.832Z,10.38
2019-02-10T12:55:19.184Z,25.12
2019-02-10T12:57:48.203Z,28.07
2019-02-10T13:00:18.410Z,54.63
2019-02-10T13:02:51.635Z,27.75
2019-02-10T13:05:21.343Z,21.27
2019-02-10T13:07:55.447Z,18.40
2019-02-10T13:13:20.257Z,15.00
2019-02-10T13:15:49.174Z,13.30
2019-02-10T13:18:20.085Z,13.37
2019-02-10T13:20:51.882Z,11.60
2019-02-10T13:23:30.033Z,11.28
2019-02-10T13:26:19.196Z,10.55
2019-02-10T13:28:51.190Z,9.17
2019-02-10T13:31:22.643Z,8.37
2019-02-10T13:33:53.959Z,7.50
2019-02-10T13:36:33.130Z,7.00
2019-02-10T13:39:02.229Z,7.00
2019-02-10T13:41:45.978Z,6.70
2019-02-10T13:44:25.420Z,6.23
2019-02-10T13:46:54.611Z,6.10
2019-02-10T13:49:24.936Z,5.70
2019-02-10T13:51:53.960Z,5.57
2019-02-10T13:54:23.266Z,5.60
2019-02-10T13:59:59.096Z,5.73
2019-02-10T14:02:28.120Z,5.83
2019-02-10T14:04:57.007Z,4.80
2019-02-10T14:13:03.192Z,4.10
2019-02-10T14:15:37.175Z,4.87
2019-02-10T14:18:06.091Z,5.00
2019-02-10T14:20:35.202Z,3.90
2019-02-10T14:23:05.020Z,4.77
2019-02-10T14:25:34.320Z,4.67
2019-02-10T14:28:04.745Z,4.60
2019-02-10T14:30:33.983Z,4.37
2019-02-10T14:33:07.063Z,4.17
2019-02-10T14:38:36.277Z,4.37
2019-02-10T14:41:08.624Z,3.73
2019-02-10T14:43:40.654Z,3.70
2019-02-10T14:46:11.679Z,3.33
2019-02-10T14:48:42.712Z,3.47
2019-02-10T14:51:11.892Z,3.60
2019-02-10T14:53:40.835Z,3.10
2019-02-10T14:56:27.971Z,3.10
2019-02-10T14:58:56.837Z,3.40
2019-02-10T15:01:28.307Z,3.33
2019-02-10T15:03:57.179Z,3.10
2019-02-10T15:06:30.600Z,3.13
2019-02-10T15:09:09.481Z,3.10
2019-02-10T15:11:38.579Z,3.20
2019-02-10T15:14:10.115Z,2.80
2019-02-10T15:19:24.857Z,3.23
2019-02-10T15:21:53.774Z,2.80
2019-02-10T15:24:23.056Z,2.70
2019-02-10T15:27:14.207Z,2.97
2019-02-10T15:29:43.707Z,3.40
2019-02-10T15:32:22.353Z,2.67
2019-02-10T15:34:52.812Z,2.90
2019-02-10T15:37:26.077Z,2.60
2019-02-10T15:39:56.749Z,2.50
2019-02-10T15:42:26.026Z,2.47
2019-02-10T15:45:09.971Z,2.30
2019-02-10T15:47:56.991Z,2.53
2019-02-10T15:50:33.957Z,2.23
2019-02-10T15:53:02.927Z,2.10
2019-02-10T15:58:31.158Z,2.00
2019-02-10T16:04:26.479Z,2.30
2019-02-10T16:06:57.364Z,2.03
2019-02-10T16:09:31.118Z,2.20
2019-02-10T16:12:04.393Z,1.97
2019-02-10T16:14:36.639Z,1.80
2019-02-10T16:17:08.630Z,2.10
2019-02-10T16:19:42.136Z,2.07
2019-02-10T16:24:47.261Z,1.90
2019-02-10T16:27:18.028Z,1.97
2019-02-10T16:29:47.177Z,2.20
2019-02-10T16:32:19.332Z,2.10
2019-02-10T16:34:51.669Z,1.80
2019-02-10T16:37:22.401Z,1.80
2019-02-10T16:39:51.548Z,1.80
2019-02-10T16:42:20.698Z,1.70
2019-02-10T16:47:43.268Z,2.07
2019-02-10T16:50:15.291Z,1.80
2019-02-10T16:52:44.417Z,1.60
2019-02-10T16:55:25.426Z,1.70
2019-02-10T16:57:54.682Z,1.80
2019-02-10T17:00:23.669Z,1.60
2019-02-10T17:03:05.442Z,1.60
2019-02-10T17:05:43.893Z,1.70
2019-02-10T17:08:27.418Z,1.30
2019-02-10T17:13:43.373Z,1.47
2019-02-10T17:16:12.199Z,1.67
2019-02-10T17:18:44.261Z,1.63
2019-02-10T17:21:20.294Z,1.60
2019-02-10T17:23:53.225Z,1.80
2019-02-10T17:26:22.136Z,2.20
2019-02-10T17:28:53.652Z,2.07
2019-02-10T17:31:25.232Z,2.43
2019-02-10T17:33:54.212Z,2.70
2019-02-10T17:36:23.203Z,2.60
2019-02-10T17:38:53.224Z,3.00
2019-02-10T17:41:52.736Z,2.90
2019-02-10T17:44:26.392Z,3.10
2019-02-10T17:46:55.219Z,3.37
2019-02-10T17:49:25.027Z,3.47
2019-02-10T17:51:53.980Z,3.17
2019-02-10T17:54:23.083Z,3.47
2019-02-10T17:56:53.194Z,3.00
2019-02-10T17:59:22.818Z,3.30
2019-02-10T18:01:51.795Z,3.23
2019-02-10T18:04:37.450Z,3.57
2019-02-10T18:07:08.236Z,3.83
2019-02-10T18:09:38.406Z,3.63
2019-02-10T18:12:23.812Z,4.30
2019-02-10T18:15:38.462Z,4.60
2019-02-10T18:18:26.715Z,5.37
2019-02-10T18:21:15.764Z,5.43
2019-02-10T18:26:47.988Z,4.67
2019-02-10T18:29:36.670Z,5.70
2019-02-10T18:32:30.848Z,5.27
2019-02-10T18:35:17.989Z,5.60
2019-02-10T18:37:58.427Z,5.73
2019-02-10T18:40:39.250Z,5.80
2019-02-10T18:43:50.192Z,6.40
2019-02-10T18:46:50.023Z,6.60
2019-02-10T18:49:43.989Z,6.70
2019-02-10T18:52:50.095Z,7.93
2019-02-10T18:55:44.017Z,6.30
2019-02-10T18:58:18.533Z,7.70
2019-02-10T19:00:58.768Z,7.40
2019-02-10T19:04:09.420Z,8.93
2019-02-10T19:07:03.066Z,7.63
2019-02-10T19:09:51.027Z,7.53
2019-02-10T19:12:45.319Z,8.47
2019-02-10T19:22:07.688Z,9.47
2019-02-10T19:24:59.650Z,9.43
2019-02-10T19:27:47.835Z,9.40
2019-02-10T19:30:44.886Z,10.40
2019-02-10T19:33:31.577Z,10.20
2019-02-10T19:36:15.919Z,10.70
2019-02-10T19:39:03.307Z,11.07
2019-02-10T19:41:55.720Z,11.03
2019-02-10T19:44:29.823Z,12.30
2019-02-10T19:47:24.943Z,11.20
2019-02-10T19:50:09.192Z,12.00
2019-02-10T19:53:06.518Z,11.00
2019-02-10T19:56:14.528Z,10.80
2019-02-10T19:59:09.971Z,11.60
2019-02-10T20:01:57.062Z,12.30
2019-02-10T20:04:48.227Z,12.30
2019-02-10T20:07:47.349Z,11.30
2019-02-10T20:10:23.250Z,12.23
2019-02-10T20:13:20.586Z,12.27
2019-02-10T20:16:11.235Z,12.53
2019-02-10T20:18:47.627Z,15.33
2019-02-10T20:24:26.296Z,16.87
2019-02-10T20:27:06.617Z,24.23
2019-02-10T20:30:04.805Z,23.53
2019-02-10T20:32:57.601Z,28.40
2019-02-10T20:39:22.205Z,27.83
2019-02-10T20:41:48.623Z,32.13
2019-02-10T20:47:22.810Z,32.43
2019-02-10T20:50:25.536Z,32.30
2019-02-10T20:53:24.307Z,32.33
2019-02-10T20:56:44.172Z,31.17
2019-02-10T20:59:42.435Z,31.17
2019-02-10T21:02:37.723Z,31.87
2019-02-10T21:05:36.287Z,30.17
2019-02-10T21:08:48.695Z,29.43
2019-02-10T21:11:49.574Z,28.20
2019-02-10T21:14:45.973Z,28.60
2019-02-10T21:17:38.143Z,29.00
2019-02-10T21:21:03.344Z,29.87
2019-02-10T21:23:48.081Z,26.10
2019-02-10T21:26:52.338Z,27.20
2019-02-10T21:29:42.904Z,26.20
2019-02-10T21:32:25.010Z,25.57
2019-02-10T21:35:05.138Z,27.83
2019-02-10T21:37:58.126Z,27.13
2019-02-10T21:40:40.305Z,26.30
2019-02-10T21:43:20.958Z,24.80
2019-02-10T21:46:09.515Z,26.60
2019-02-10T21:48:58.576Z,26.93
2019-02-10T21:51:29.606Z,25.27
2019-02-10T21:53:58.824Z,26.40
2019-02-10T21:56:30.154Z,23.87
2019-02-10T21:58:59.627Z,24.47
2019-02-10T22:01:33.359Z,24.23
2019-02-10T22:04:11.990Z,24.80
2019-02-10T22:07:01.875Z,23.60
2019-02-10T22:09:32.809Z,24.00
2019-02-10T22:12:06.556Z,22.13
2019-02-10T22:17:35.503Z,24.53
2019-02-10T22:20:09.393Z,23.93
2019-02-10T22:22:39.627Z,23.53
2019-02-10T22:25:27.883Z,22.87
2019-02-10T22:28:03.995Z,22.97
2019-02-10T22:30:33.175Z,23.27
2019-02-10T22:33:02.432Z,22.83
2019-02-10T22:35:33.484Z,23.10
2019-02-10T22:38:11.383Z,22.63
2019-02-10T22:40:45.901Z,22.93
2019-02-10T22:43:14.817Z,22.23
2019-02-10T22:45:48.069Z,22.20
2019-02-10T22:48:17.071Z,22.87
2019-02-10T22:50:48.100Z,21.90
2019-02-10T22:53:17.795Z,23.83
2019-02-10T22:55:46.705Z,24.50
2019-02-10T22:58:23.493Z,24.07
2019-02-10T23:01:08.527Z,23.43
2019-02-10T23:03:40.032Z,22.90
2019-02-10T23:06:14.315Z,23.30
2019-02-10T23:09:08.251Z,22.77
2019-02-10T23:11:42.816Z,22.57
2019-02-10T23:14:19.043Z,22.37
2019-02-10T23:16:48.850Z,22.73
2019-02-10T23:19:19.848Z,23.30
2019-02-10T23:21:48.934Z,22.33
2019-02-10T23:27:14.040Z,23.60
2019-02-10T23:29:46.918Z,22.50
2019-02-10T23:32:15.971Z,23.03
2019-02-10T23:34:45.807Z,23.90
2019-02-10T23:37:16.968Z,23.37
2019-02-10T23:40:29.563Z,24.40
2019-02-10T23:43:02.230Z,23.57
2019-02-10T23:45:35.998Z,22.73
2019-02-10T23:48:32.437Z,22.50
2019-02-10T23:51:04.116Z,24.23
2019-02-10T23:53:35.026Z,23.57
2019-02-10T23:56:04.218Z,25.17
2019-02-10T23:58:37.166Z,24.50
